createdAt,value
2022-09-13T00:02:28.397Z,1.33
2022-09-13T00:05:34.922Z,0.88
2022-09-13T00:08:44.291Z,1.05
2022-09-13T00:11:50.371Z,1.20
2022-09-13T00:15:07.794Z,2.10
2022-09-13T00:18:16.554Z,2.15
2022-09-13T00:21:25.560Z,2.10
2022-09-13T00:24:31.306Z,1.88
2022-09-13T00:27:39.720Z,1.75
2022-09-13T00:30:53.462Z,1.63
2022-09-13T00:34:06.979Z,1.75
2022-09-13T00:37:33.751Z,1.55
2022-09-13T00:40:41.654Z,1.75
2022-09-13T00:43:51.018Z,1.40
2022-09-13T00:47:12.429Z,1.73
2022-09-13T00:50:27.139Z,1.45
2022-09-13T00:53:35.781Z,1.40
2022-09-13T00:56:52.106Z,1.15
2022-09-13T01:00:11.618Z,1.10
2022-09-13T01:03:26.508Z,1.33
2022-09-13T01:06:40.906Z,1.50
2022-09-13T01:13:20.642Z,1.10
2022-09-13T01:16:34.076Z,1.50
2022-09-13T01:19:45.115Z,1.38
2022-09-13T01:23:31.668Z,1.73
2022-09-13T01:27:17.125Z,1.30
2022-09-13T01:30:40.495Z,1.70
2022-09-13T01:34:14.439Z,1.60
2022-09-13T01:37:39.231Z,1.20
2022-09-13T01:41:11.916Z,1.58
2022-09-13T01:44:41.308Z,1.48
2022-09-13T01:48:02.429Z,1.40
2022-09-13T01:51:19.685Z,1.45
2022-09-13T01:54:48.405Z,1.60
2022-09-13T01:58:04.294Z,1.40
2022-09-13T02:01:22.821Z,1.67
2022-09-13T02:04:46.508Z,1.42
2022-09-13T02:08:06.528Z,1.38
2022-09-13T02:11:14.766Z,1.38
2022-09-13T02:14:29.942Z,1.45
2022-09-13T02:18:09.656Z,1.42
2022-09-13T02:21:38.248Z,1.10
2022-09-13T02:25:09.656Z,1.23
2022-09-13T02:28:25.864Z,1.50
2022-09-13T02:31:46.404Z,2.22
2022-09-13T02:35:00.802Z,1.40
2022-09-13T02:38:27.437Z,1.50
2022-09-13T02:42:13.563Z,1.73
2022-09-13T02:45:32.510Z,1.67
2022-09-13T02:48:55.613Z,1.70
2022-09-13T02:52:14.405Z,1.55
2022-09-13T02:55:36.455Z,1.77
2022-09-13T02:59:29.614Z,1.30
2022-09-13T03:02:48.807Z,1.48
2022-09-13T03:06:04.748Z,1.50
2022-09-13T03:13:08.198Z,1.35
2022-09-13T03:16:33.464Z,1.40
2022-09-13T03:20:05.721Z,1.40
2022-09-13T03:23:31.308Z,1.20
2022-09-13T03:26:49.852Z,1.25
2022-09-13T03:30:02.568Z,1.33
2022-09-13T03:33:17.541Z,1.35
2022-09-13T03:36:32.973Z,1.20
2022-09-13T03:39:54.164Z,1.48
2022-09-13T03:43:09.216Z,1.25
2022-09-13T03:46:23.428Z,1.30
2022-09-13T03:49:35.032Z,1.42
2022-09-13T03:52:46.605Z,1.38
2022-09-13T03:56:00.475Z,1.40
2022-09-13T03:59:07.561Z,1.15
2022-09-13T04:02:22.340Z,1.88
2022-09-13T04:05:38.366Z,1.65
2022-09-13T04:08:54.269Z,1.50
2022-09-13T04:12:08.273Z,1.50
2022-09-13T04:15:24.540Z,1.38
2022-09-13T04:18:49.675Z,1.60
2022-09-13T04:25:48.617Z,1.42
2022-09-13T04:29:00.749Z,1.30
2022-09-13T04:32:18.381Z,1.35
2022-09-13T04:35:46.152Z,1.23
2022-09-13T04:38:53.571Z,1.52
2022-09-13T04:42:03.313Z,1.67
2022-09-13T04:45:11.534Z,1.88
2022-09-13T04:48:17.527Z,1.60
2022-09-13T04:51:26.410Z,1.70
2022-09-13T04:54:33.281Z,1.48
2022-09-13T04:57:39.446Z,1.33
2022-09-13T05:00:49.145Z,1.55
2022-09-13T05:03:57.606Z,1.58
2022-09-13T05:07:07.955Z,1.52
2022-09-13T05:10:19.409Z,1.73
2022-09-13T05:13:35.255Z,1.50
2022-09-13T05:16:48.439Z,1.80
2022-09-13T05:19:57.489Z,1.50
2022-09-13T05:23:55.878Z,1.63
2022-09-13T05:27:07.158Z,1.63
2022-09-13T05:30:23.870Z,1.60
2022-09-13T05:33:35.650Z,1.52
2022-09-13T05:36:53.907Z,1.80
2022-09-13T05:40:11.703Z,1.10
2022-09-13T05:43:23.629Z,1.80
2022-09-13T05:50:09.440Z,2.00
2022-09-13T05:53:14.899Z,1.95
2022-09-13T05:56:23.202Z,1.90
2022-09-13T05:59:31.772Z,1.63
2022-09-13T06:02:38.303Z,1.75
2022-09-13T06:05:45.747Z,1.60
2022-09-13T06:08:56.392Z,2.20
2022-09-13T06:12:18.050Z,1.85
2022-09-13T06:15:29.974Z,2.28
2022-09-13T06:19:02.553Z,1.88
2022-09-13T06:22:23.314Z,1.90
2022-09-13T06:25:48.187Z,1.80
2022-09-13T06:29:26.333Z,2.10
2022-09-13T06:40:39.410Z,2.35
2022-09-13T06:44:36.016Z,2.25
2022-09-13T06:48:13.476Z,1.90
2022-09-13T06:55:13.684Z,1.60
2022-09-13T06:58:45.061Z,2.15
2022-09-13T07:14:38.314Z,1.70
2022-09-13T07:21:48.092Z,1.80
2022-09-13T07:24:59.171Z,1.85
2022-09-13T07:28:10.675Z,1.60
2022-09-13T07:31:25.905Z,1.98
2022-09-13T07:34:50.535Z,2.03
2022-09-13T07:38:02.429Z,1.58
2022-09-13T07:41:20.576Z,2.13
2022-09-13T07:44:27.956Z,2.08
2022-09-13T07:47:39.163Z,1.77
2022-09-13T07:51:08.570Z,2.13
2022-09-13T07:54:22.791Z,1.73
2022-09-13T07:57:30.930Z,1.67
2022-09-13T08:00:37.585Z,2.17
2022-09-13T08:03:43.742Z,1.80
2022-09-13T08:07:11.232Z,1.88
2022-09-13T08:10:25.285Z,1.50
2022-09-13T08:13:38.679Z,1.75
2022-09-13T08:16:51.147Z,2.13
2022-09-13T08:20:06.411Z,2.00
2022-09-13T08:23:17.695Z,1.58
2022-09-13T08:26:30.107Z,1.67
2022-09-13T08:29:41.129Z,1.70
2022-09-13T08:32:47.556Z,1.40
2022-09-13T08:36:00.271Z,1.55
2022-09-13T08:39:14.225Z,1.40
2022-09-13T08:42:34.414Z,1.80
2022-09-13T08:45:42.599Z,1.70
2022-09-13T08:48:53.331Z,1.92
2022-09-13T08:52:04.379Z,1.75
2022-09-13T08:55:24.550Z,1.52
2022-09-13T08:58:47.025Z,1.63
2022-09-13T09:02:06.725Z,1.23
2022-09-13T09:05:34.573Z,1.50
2022-09-13T09:08:47.598Z,1.40
2022-09-13T09:12:19.684Z,1.70
2022-09-13T09:15:45.961Z,1.75
2022-09-13T09:19:00.992Z,1.48
2022-09-13T09:22:20.719Z,1.50
2022-09-13T09:25:34.705Z,1.30
2022-09-13T09:28:46.615Z,1.50
2022-09-13T09:32:18.893Z,1.90
2022-09-13T09:35:47.268Z,1.60
2022-09-13T09:38:58.555Z,1.58
2022-09-13T09:42:15.679Z,1.45
2022-09-13T09:45:30.654Z,1.42
2022-09-13T09:48:47.978Z,1.50
2022-09-13T09:51:57.516Z,1.42
2022-09-13T09:55:15.965Z,1.15
2022-09-13T09:58:44.152Z,1.27
2022-09-13T10:01:59.726Z,1.50
2022-09-13T10:05:15.836Z,1.25
2022-09-13T10:08:32.555Z,1.38
2022-09-13T10:12:08.722Z,1.30
2022-09-13T10:15:47.648Z,1.10
2022-09-13T10:19:35.508Z,1.27
2022-09-13T10:22:43.814Z,1.00
2022-09-13T10:26:04.709Z,1.25
2022-09-13T10:29:13.827Z,1.35
2022-09-13T10:32:20.295Z,1.23
2022-09-13T10:35:32.118Z,1.00
2022-09-13T10:38:47.509Z,0.90
2022-09-13T10:42:03.391Z,0.90
2022-09-13T10:45:16.347Z,0.80
2022-09-13T10:48:41.630Z,1.08
2022-09-13T10:51:50.189Z,0.60
2022-09-13T10:54:58.871Z,0.50
2022-09-13T10:58:26.235Z,0.50
2022-09-13T11:01:48.684Z,0.80
2022-09-13T11:05:14.807Z,0.82
2022-09-13T11:08:53.746Z,0.60
2022-09-13T11:12:14.856Z,0.80
2022-09-13T11:15:34.666Z,0.60
2022-09-13T11:19:17.474Z,0.70
2022-09-13T11:22:49.644Z,0.82
2022-09-13T11:26:25.409Z,0.70
2022-09-13T11:33:36.997Z,0.75
2022-09-13T11:36:59.171Z,0.65
2022-09-13T11:40:27.956Z,0.75
2022-09-13T11:43:50.178Z,0.80
2022-09-13T11:47:10.899Z,0.80
2022-09-13T11:50:40.652Z,0.95
2022-09-13T11:54:01.322Z,0.82
2022-09-13T11:57:13.251Z,0.50
2022-09-13T12:00:27.779Z,0.50
2022-09-13T12:03:41.114Z,0.60
2022-09-13T12:06:52.091Z,0.77
2022-09-13T12:10:04.507Z,0.70
2022-09-13T12:13:25.418Z,0.90
2022-09-13T12:16:47.669Z,0.90
2022-09-13T12:20:01.078Z,0.65
2022-09-13T12:23:18.666Z,0.60
2022-09-13T12:26:31.632Z,0.60
2022-09-13T12:29:43.106Z,0.47
2022-09-13T12:32:58.710Z,0.50
2022-09-13T12:36:23.669Z,0.73
2022-09-13T12:39:44.844Z,0.60
2022-09-13T12:43:12.990Z,0.63
2022-09-13T12:46:46.202Z,0.80
2022-09-13T12:50:45.933Z,0.90
2022-09-13T12:54:14.445Z,0.77
2022-09-13T12:57:35.520Z,0.55
2022-09-13T13:00:51.390Z,0.60
2022-09-13T13:04:02.953Z,0.70
2022-09-13T13:07:28.037Z,0.50
2022-09-13T13:10:41.201Z,0.60
2022-09-13T13:13:49.443Z,0.60
2022-09-13T13:16:57.463Z,0.77
2022-09-13T13:20:28.234Z,0.75
2022-09-13T13:23:45.385Z,0.60
2022-09-13T13:27:03.700Z,0.98
2022-09-13T13:30:45.837Z,0.70
2022-09-13T13:33:55.211Z,0.68
2022-09-13T13:37:06.543Z,0.50
2022-09-13T13:40:44.654Z,0.60
2022-09-13T13:43:51.377Z,0.63
2022-09-13T13:47:19.512Z,0.70
2022-09-13T13:50:37.581Z,0.40
2022-09-13T13:53:51.119Z,1.15
2022-09-13T13:57:00.639Z,0.60
2022-09-13T14:00:39.940Z,0.60
2022-09-13T14:04:25.565Z,0.65
2022-09-13T14:08:04.993Z,0.60
2022-09-13T14:11:24.004Z,0.60
2022-09-13T14:14:58.604Z,0.60
2022-09-13T14:18:28.200Z,0.52
2022-09-13T14:21:38.006Z,0.50
2022-09-13T14:24:50.160Z,0.35
2022-09-13T14:28:04.779Z,0.60
2022-09-13T14:31:21.620Z,0.47
2022-09-13T14:34:32.609Z,0.40
2022-09-13T14:37:46.476Z,0.60
2022-09-13T14:40:56.503Z,0.60
2022-09-13T14:44:25.079Z,0.60
2022-09-13T14:47:39.554Z,0.75
2022-09-13T14:50:53.297Z,0.50
2022-09-13T14:54:05.120Z,0.70
2022-09-13T14:57:20.973Z,0.40
2022-09-13T15:00:28.414Z,0.45
2022-09-13T15:03:35.287Z,0.50
2022-09-13T15:06:45.092Z,0.47
2022-09-13T15:09:53.402Z,0.50
2022-09-13T15:13:13.480Z,0.40
2022-09-13T15:16:32.437Z,0.40
2022-09-13T15:19:51.202Z,0.40
2022-09-13T15:22:59.830Z,0.38
2022-09-13T15:26:10.433Z,0.40
2022-09-13T15:29:22.157Z,0.47
2022-09-13T15:32:36.889Z,0.40
2022-09-13T15:35:46.575Z,0.40
2022-09-13T15:39:04.218Z,0.40
2022-09-13T15:42:11.029Z,0.30
2022-09-13T15:45:20.321Z,0.40
2022-09-13T15:48:30.984Z,0.40
2022-09-13T15:51:39.722Z,0.63
2022-09-13T15:54:45.849Z,0.40
2022-09-13T15:57:52.754Z,0.32
2022-09-13T16:01:03.843Z,0.45
2022-09-13T16:04:11.390Z,0.50
2022-09-13T16:07:29.798Z,0.43
2022-09-13T16:18:14.818Z,0.50
2022-09-13T16:25:33.981Z,0.50
2022-09-13T16:28:42.381Z,0.50
2022-09-13T16:31:49.676Z,0.40
2022-09-13T16:35:00.784Z,0.40
2022-09-13T16:38:11.629Z,0.60
2022-09-13T16:41:18.224Z,0.63
2022-09-13T16:44:26.743Z,0.50
2022-09-13T16:47:37.000Z,0.30
2022-09-13T16:50:46.723Z,0.40
2022-09-13T16:53:56.334Z,0.55
2022-09-13T16:57:01.867Z,0.60
2022-09-13T17:00:12.542Z,0.30
2022-09-13T17:03:18.768Z,0.70
2022-09-13T17:06:30.611Z,0.60
2022-09-13T17:09:38.268Z,0.63
2022-09-13T17:12:52.794Z,0.60
2022-09-13T17:16:24.195Z,0.60
2022-09-13T17:23:44.033Z,0.80
2022-09-13T17:26:58.522Z,0.80
2022-09-13T17:30:15.800Z,0.70
2022-09-13T17:33:30.441Z,0.73
2022-09-13T17:36:44.991Z,0.57
2022-09-13T17:39:53.606Z,0.60
2022-09-13T17:43:03.485Z,0.70
2022-09-13T17:46:15.681Z,0.50
2022-09-13T17:49:21.992Z,0.60
2022-09-13T17:52:31.491Z,0.77
2022-09-13T17:55:41.203Z,0.57
2022-09-13T17:58:51.771Z,0.70
2022-09-13T18:02:01.562Z,0.80
2022-09-13T18:05:19.133Z,0.60
2022-09-13T18:08:32.171Z,0.65
2022-09-13T18:11:45.424Z,0.70
2022-09-13T18:14:59.336Z,0.93
2022-09-13T18:18:08.371Z,1.30
2022-09-13T18:21:44.430Z,0.60
2022-09-13T18:24:57.915Z,0.80
2022-09-13T18:28:08.478Z,0.88
2022-09-13T18:31:25.024Z,0.73
2022-09-13T18:34:43.602Z,0.95
2022-09-13T18:37:49.975Z,1.17
2022-09-13T18:41:09.857Z,0.90
2022-09-13T18:44:23.717Z,0.65
2022-09-13T18:47:36.115Z,0.73
2022-09-13T18:50:45.653Z,0.90
2022-09-13T18:53:57.121Z,0.80
2022-09-13T18:57:07.276Z,0.70
2022-09-13T19:00:23.210Z,0.88
2022-09-13T19:03:37.499Z,0.77
2022-09-13T19:06:49.328Z,0.80
2022-09-13T19:09:55.477Z,1.10
2022-09-13T19:13:11.679Z,0.88
2022-09-13T19:16:21.452Z,0.80
2022-09-13T19:19:31.619Z,0.70
2022-09-13T19:22:43.219Z,0.90
2022-09-13T19:25:52.759Z,0.98
2022-09-13T19:29:06.601Z,1.10
2022-09-13T19:32:19.434Z,0.90
2022-09-13T19:35:28.353Z,1.00
2022-09-13T19:38:37.385Z,0.85
2022-09-13T19:41:47.267Z,0.90
2022-09-13T19:44:57.818Z,0.80
2022-09-13T19:51:34.001Z,1.00
2022-09-13T19:54:43.639Z,1.10
2022-09-13T19:57:59.378Z,0.98
2022-09-13T20:01:07.569Z,1.10
2022-09-13T20:04:19.000Z,1.00
2022-09-13T20:07:33.566Z,1.38
2022-09-13T20:10:44.279Z,1.17
2022-09-13T20:13:53.808Z,1.35
2022-09-13T20:17:05.909Z,0.98
2022-09-13T20:20:13.714Z,0.77
2022-09-13T20:23:24.892Z,0.85
2022-09-13T20:26:32.526Z,1.10
2022-09-13T20:29:45.009Z,1.17
2022-09-13T20:33:15.863Z,0.82
2022-09-13T20:36:25.900Z,0.90
2022-09-13T20:39:44.670Z,1.17
2022-09-13T20:42:57.187Z,0.98
2022-09-13T20:46:06.801Z,0.90
2022-09-13T20:49:21.686Z,0.90
2022-09-13T20:52:34.714Z,0.98
2022-09-13T20:56:08.602Z,0.98
2022-09-13T21:02:59.714Z,1.13
2022-09-13T21:06:47.864Z,1.10
2022-09-13T21:10:02.894Z,1.13
2022-09-13T21:13:28.792Z,1.00
2022-09-13T21:16:41.602Z,1.20
2022-09-13T21:20:02.308Z,1.42
2022-09-13T21:23:07.942Z,1.05
2022-09-13T21:26:16.129Z,1.05
2022-09-13T21:29:24.243Z,1.45
2022-09-13T21:32:32.490Z,1.20
2022-09-13T21:35:41.612Z,1.50
2022-09-13T21:38:49.016Z,1.38
2022-09-13T21:41:55.532Z,1.45
2022-09-13T21:45:04.585Z,1.02
2022-09-13T21:48:10.937Z,1.30
2022-09-13T21:51:20.645Z,1.23
2022-09-13T21:54:33.089Z,1.30
2022-09-13T21:57:39.898Z,1.38
2022-09-13T22:00:48.442Z,1.08
2022-09-13T22:03:57.218Z,1.40
2022-09-13T22:07:03.418Z,1.10
2022-09-13T22:10:10.604Z,0.98
2022-09-13T22:13:17.522Z,1.20
2022-09-13T22:16:35.568Z,1.33
2022-09-13T22:19:41.887Z,1.02
2022-09-13T22:22:54.589Z,1.10
2022-09-13T22:26:01.812Z,1.42
2022-09-13T22:29:10.930Z,1.30
2022-09-13T22:32:23.973Z,1.10
2022-09-13T22:35:33.219Z,1.45
2022-09-13T22:38:44.046Z,1.17
2022-09-13T22:41:52.723Z,1.20
2022-09-13T22:45:09.239Z,1.67
2022-09-13T22:48:20.585Z,1.25
2022-09-13T22:51:29.832Z,1.42
2022-09-13T22:54:39.155Z,1.33
2022-09-13T22:57:47.759Z,1.60
2022-09-13T23:01:08.848Z,1.50
2022-09-13T23:04:17.712Z,1.30
2022-09-13T23:07:31.719Z,1.52
2022-09-13T23:10:43.343Z,1.40
2022-09-13T23:13:51.753Z,1.20
2022-09-13T23:16:59.312Z,1.67
2022-09-13T23:20:11.462Z,1.35
2022-09-13T23:23:17.549Z,1.20
2022-09-13T23:26:26.330Z,1.50
2022-09-13T23:29:32.652Z,1.40
2022-09-13T23:32:39.163Z,1.30
2022-09-13T23:35:48.468Z,1.35
2022-09-13T23:38:57.062Z,1.20
2022-09-13T23:42:05.112Z,1.10
2022-09-13T23:45:12.053Z,1.23
2022-09-13T23:48:18.657Z,1.20
2022-09-13T23:51:28.576Z,1.30
2022-09-13T23:54:35.399Z,1.10
2022-09-13T23:57:42.236Z,1.20
